Waswanipi, Canada
Current Conditions -  °F | °C
As of 8:00 PM on Friday 24 Oct 2014 (Local Time) from CYNM Reporting Station
Clear Clear  
Wind Chill: 30°   Ceiling: Unl
Heat Index: 34°   Visibility: 9mi
Dew Point: 28°   Wind: 5mph
Humidity: 81%   Direction: 200°SSW
Pressure: 29.78"   Gusts: NA
Location:  49.65°N, 76.48°W
Report Text: CYNM 250000Z AUTO 20004KT 9SM CLR 01/M02 A2978 RMK ICG MISG SLP103
Loading
Personal Weather Stations






























Interactive Weather Map New forecast layout! Learn more

10-Day Weather Forecast

Advertisements
Track Severe Weather on mobile